This is the latest recevied weather packets stored in our database for station/object KD5BIG-13. If no packets are shown the sender has not sent any weather packets the latest 10 day(s).
| Time | Temp. | Humidity | Pressure | Rain* | Wind** | Luminosity | Snow |
|---|---|---|---|---|---|---|---|
| 1777816861 | 15° C | 99% | 1026.5 hPa | 0 mm | - | 301 W/m² | - |
| 1777816558 | 13.89° C | 99% | 1026.5 hPa | 0 mm | - | 252 W/m² | - |
| 1777816255 | 13.33° C | 99% | 1026.6 hPa | 0 mm | - | 222 W/m² | - |
| 1777815952 | 12.78° C | 99% | 1026.5 hPa | 0 mm | - | 205 W/m² | - |
| 1777815650 | 12.22° C | 99% | 1026.7 hPa | 0 mm | - | 187 W/m² | - |
| 1777815347 | 11.67° C | 99% | 1026.7 hPa | 0 mm | - | 164 W/m² | - |
| 1777815044 | 11.11° C | 99% | 1026.7 hPa | 0 mm | - | 116 W/m² | - |
| 1777814740 | 10.56° C | 99% | 1026.4 hPa | 0 mm | - | 53 W/m² | - |
| 1777814437 | 10.56° C | 99% | 1026.6 hPa | 0 mm | - | 53 W/m² | - |
| 1777814134 | 10° C | 99% | 1026.5 hPa | 0 mm | - | 51 W/m² | - |
| 1777813831 | 10° C | 99% | 1026.4 hPa | 0 mm | - | 39 W/m² | - |
| 1777813528 | 9.44° C | 99% | 1026.4 hPa | 0 mm | - | 45 W/m² | - |
| 1777813226 | 8.89° C | 99% | 1026.4 hPa | 0 mm | - | 44 W/m² | - |
| 1777812923 | 8.33° C | 99% | 1026.3 hPa | 0 mm | - | 42 W/m² | - |
| 1777812621 | 7.78° C | 99% | 1026.4 hPa | 0 mm | - | 41 W/m² | - |
| 1777812317 | 7.78° C | 99% | 1026.2 hPa | 0 mm | - | 40 W/m² | - |
| 1777812015 | 7.78° C | 99% | 1026.1 hPa | 0 mm | - | 39 W/m² | - |
| 1777811714 | 7.78° C | 99% | 1026.2 hPa | 0 mm | - | 37 W/m² | - |
| 1777811410 | 7.22° C | 99% | 1026 hPa | 0 mm | - | 36 W/m² | - |
| 1777811106 | 7.22° C | 99% | 1026.1 hPa | 0 mm | - | 34 W/m² | - |
| 1777810803 | 6.67° C | 99% | 1025.9 hPa | 0 mm | - | 32 W/m² | - |
| 1777810500 | 6.67° C | 99% | 1025.9 hPa | 0 mm | - | 31 W/m² | - |
| 1777810196 | 6.67° C | 99% | 1025.9 hPa | 0 mm | - | 29 W/m² | - |
| 1777809893 | 6.67° C | 99% | 1025.8 hPa | 0 mm | - | 27 W/m² | - |
| 1777809591 | 6.67° C | 99% | 1025.6 hPa | 0 mm | - | 25 W/m² | - |
* Rain latest hour (hover to see other rain measurements)
** Current wind speed in m/s (hover to see current wind gust speed)